Flight Track Log - Related Links

Times and Time Zones

All times are in EDT time to prevent confusion due to time zone crossing. See the RPA3321 flight status page for this flight to view local times or setup timezone preferences in your user account.

Time Position Orientation Groundspeed Altitude Reporting Facility
EDT Latitude Longitude Course Direction KTS MPH feet Rate Location/Type
Sat 05:55:31 AM 42.7319 -73.8081 169° South 138 159 1,500  Level Boston Center
Sat 05:56:43 AM 42.7147 -73.8500 241° Southwest 210 242 4,200 3,000 Climbing Boston Center
Sat 05:57:39 AM 42.7556 -73.9047 315° West 223 257 7,900 3,569 Climbing Boston Center
Sat 05:58:00 AM 42.4373 -74.0783 180° South  Level Estimated
Sat 05:58:39 AM 42.7964 -73.9708 310° West 228 262 11,100  Level Boston Center
Sat 05:59:00 AM 42.3593 -74.1470 170° South  Level Estimated
Sat 05:59:39 AM 42.7561 -74.0292 227° Southwest 156 180 13,100  Level Boston Center
Sat 06:00:00 AM 42.2812 -74.2155 180° South  Level Estimated
Sat 06:00:39 AM 42.6733 -73.9961 164° South 376 433 16,300  Level Boston Center
Sat 06:01:00 AM 42.2031 -74.2838 169° South  Level Estimated
Sat 06:01:39 AM 42.5883 -73.9572 161° South 348 400 19,200  Level Boston Center
Sat 06:02:39 AM 42.4992 -73.9186 162° South 331 381 21,800 2,400 Climbing Boston Center
Sat 06:03:39 AM 42.4058 -73.8797 163° South 336 387 24,000 2,100 Climbing Boston Center
Sat 06:04:39 AM 42.3147 -73.8411 163° South 346 398 26,000 1,773 Climbing Boston Center
Sat 06:05:51 AM 42.2022 -73.8244 174° South 334 384 27,900 652 Climbing Boston Center
Sat 06:07:43 AM 42.0364 -73.8931 197° South 339 390 28,000 36 Climbing New York Center
Sat 06:08:40 AM 41.9481 -73.9306 198° South 339 390 28,000  Level New York Center
Sat 06:09:41 AM 41.8575 -73.9653 196° South 344 396 28,000  Level New York Center
Sat 06:10:41 AM 41.7669 -74.0056 198° South 344 396 28,000  Level New York Center
Sat 06:11:43 AM 41.6744 -74.0425 197° South 349 402 28,000  Level New York Center
Sat 06:12:40 AM 41.5839 -74.0797 197° South 349 402 28,000  Level New York Center
Sat 06:13:42 AM 41.4994 -74.1172 198° South 338 389 28,000  Level New York Center
Sat 06:14:40 AM 41.4067 -74.1567 198° South 343 395 28,000  Level New York Center
Sat 06:15:40 AM 41.3161 -74.1908 196° South 343 395 28,000  Level New York Center
Sat 06:16:41 AM 41.2342 -74.2225 196° South 353 406 28,000  Level New York Center
Sat 06:17:42 AM 41.1394 -74.2561 195° South 353 406 28,000  Level New York Center
Sat 06:18:41 AM 41.0508 -74.2928 197° South 348 400 28,000  Level New York Center
Sat 06:19:41 AM 40.9581 -74.3319 198° South 348 400 28,000  Level New York Center
Sat 06:20:42 AM 40.8653 -74.3683 197° South 348 400 28,000  Level New York Center
Sat 06:21:43 AM 40.7761 -74.4183 203° Southwest 348 400 28,000  Level New York Center
Sat 06:22:43 AM 40.7189 -74.5139 232° Southwest 337 388 28,000  Level New York Center
Sat 06:23:41 AM 40.6594 -74.6119 231° Southwest 337 388 28,000  Level New York Center
Sat 06:24:42 AM 40.6022 -74.7097 232° Southwest 344 396 28,000  Level New York Center
Sat 06:25:40 AM 40.5406 -74.8044 229° Southwest 344 396 28,000  Level New York Center
Sat 06:26:41 AM 40.4706 -74.9014 227° Southwest 344 396 28,000  Level New York Center
Sat 06:27:41 AM 40.4092 -74.9903 228° Southwest 344 396 28,000 -150 Level New York Center
Sat 06:28:41 AM 40.3453 -75.0792 227° Southwest 339 390 27,700 -1,000 Descending New York Center
Sat 06:29:41 AM 40.2839 -75.1650 227° Southwest 333 383 26,000 -1,714 Descending New York Center
Sat 06:30:40 AM 40.2244 -75.2483 227° Southwest 333 383 24,300 -1,600 Descending New York Center
Sat 06:31:41 AM 40.1692 -75.3289 228° Southwest 327 376 22,800 -1,150 Descending New York Center
Sat 06:32:40 AM 40.1119 -75.4094 227° Southwest 321 369 22,000 -400 Descending New York Center
Sat 06:33:41 AM 40.0522 -75.4947 228° Southwest 315 362 22,000  Level New York Center
Sat 06:34:42 AM 39.9900 -75.5908 230° Southwest 331 381 22,000  Level New York Center
Sat 06:35:40 AM 39.9231 -75.6944 230° Southwest 351 404 22,000  Level New York Center
Sat 06:36:42 AM 39.8583 -75.7981 231° Southwest 372 428 22,000 -773 Level New York Center
Sat 06:38:54 AM 39.7167 -76.0167 230° Southwest 363 418 19,500 -1,375 Descending Potomac TRACON
Sat 06:39:54 AM 39.6500 -76.1167 229° Southwest 363 418 17,600 -1,900 Descending Potomac TRACON
Sat 06:40:54 AM 39.5833 -76.2167 229° Southwest 350 403 15,700 -1,842 Descending Potomac TRACON
Sat 06:41:48 AM 39.5333 -76.3000 232° Southwest 333 383 14,100 -1,737 Descending Potomac TRACON
Sat 06:42:48 AM 39.4667 -76.3833 224° Southwest 321 369 12,400 -1,150 Descending Potomac TRACON
Sat 06:43:48 AM 39.4000 -76.4667 224° Southwest 324 373 11,800 -737 Descending Potomac TRACON
Sat 06:44:42 AM 39.3333 -76.5167 210° Southwest 321 369 11,000 -944 Descending Potomac TRACON
Sat 06:45:36 AM 39.2667 -76.5833 218° Southwest 301 346 10,100 -526 Descending Potomac TRACON
Sat 06:46:36 AM 39.2167 -76.6333 218° Southwest 243 280 10,000 -50 Descending Potomac TRACON
Sat 06:47:36 AM 39.1500 -76.6833 210° Southwest 242 278 10,000  Level Potomac TRACON
Sat 06:48:36 AM 39.1000 -76.7333 218° Southwest 244 281 10,000 -835 Level Potomac TRACON
Sat 06:49:31 AM 39.0833 -76.8167 256° West 248 285 8,400 -1,826 Descending Potomac TRACON
Sat 06:50:31 AM 39.0667 -76.9000 256° West 244 281 6,500 -1,300 Descending Potomac TRACON
Sat 06:51:31 AM 39.0500 -76.9833 256° West 240 276 5,800 -1,263 Descending Potomac TRACON
Sat 06:52:25 AM 39.0500 -77.0500 270° West 236 272 4,100 -1,500 Descending Potomac TRACON
Sat 06:53:19 AM 39.0167 -77.1167 237° Southwest 226 260 3,100 -947 Descending Potomac TRACON
Sat 06:54:19 AM 38.9500 -77.1167 180° South 206 237 2,300 -750 Descending Potomac TRACON
Sat 06:55:19 AM 38.9167 -77.1000 159° South 163 188 1,600 -700 Descending Potomac TRACON

Login

Don't have an account? Register now (free) for customized features, flight alerts, and more!